Athens, GA (30603)

11:41 AM EDT on July 29, 2016 (GMT -0400)
KGAATHEN11 | | Change Station

Elev 711 ft 33.95 °N, 83.38 °W | Updated 46 seconds ago

Scattered Clouds
Scattered Clouds
85.5 °F
Feels Like 93 °F
N
8.0
Wind Variable Wind from NW
Gusts 11.0 mph

Today
High -- | Low -- °F
--% Chance of Precip.
Yesterday
High -- | Low -- °F
Precip. -- in
Pressure 30.00 in
Visibility 10.0 miles
Clouds Scattered Clouds 2500 ft
Heat Index 93 °F
Dew Point 73 °F
Humidity 67%
Rainfall 0.00 in
Snow Depth Not available.
6:43 AM 8:36 PM
Waning Crescent, 21% visible
METAR KAHN 291451Z 28007KT 240V310 10SM SCT025 31/22 A3003 RMK AO2 SLP158 T03060222 50001
Pressure 30.00 in
Visibility 10.0 miles
Clouds Scattered Clouds 2500 ft
Heat Index 93 °F
Dew Point 73 °F
Humidity 67%
Rainfall 0.00 in
Snow Depth Not available.
6:43 AM 8:36 PM
Waning Crescent, 21% visible
METAR KAHN 291451Z 28007KT 240V310 10SM SCT025 31/22 A3003 RMK AO2 SLP158 T03060222 50001

10-Day Weather Forecast

Almanac

Astronomy

Jul. 29, 2016 Rise Set
Actual Time
Civil Twilight
Nautical Twilight
Astronomical Twilight
Moon
Length of Visible Light
Length of Day
Tomorrow will be .
, % of the Moon is Illuminated

Today's Extremes

State Highs State Lows

Community

WunderPhotos

Upload Photos

1,928,348 photos uploaded!

WunderBlog® & News

Nearby

Air Quality

  Air Quality AQ Index Pollutant
Not available.

Snow Depth

Station Depth Elevation

Earthquake Activity

City Distance Mag. Time & Date
Minimum magnitude displayed is 2.5.

Coastal Water Temperatures

Place Temperature

Stations

Nearby Weather Stations

Station Location Temp. Windchill Dew Point Humidity Wind Precip. Elev Updated Type
                   

Watches & Warnings

There are currently no watches in effect.